createdAt,value
2023-05-01T00:00:39.774Z,75.96
2023-05-01T00:01:41.588Z,75.65
2023-05-01T00:02:43.255Z,75.14
2023-05-01T00:03:45.010Z,74.70
2023-05-01T00:04:46.950Z,74.85
2023-05-01T00:05:48.578Z,75.08
2023-05-01T00:06:50.307Z,74.62
2023-05-01T00:07:51.912Z,74.22
2023-05-01T00:08:53.554Z,73.58
2023-05-01T00:09:55.448Z,73.35
2023-05-01T00:10:57.213Z,73.12
2023-05-01T00:11:58.816Z,72.88
2023-05-01T00:13:00.360Z,72.87
2023-05-01T00:14:01.883Z,73.55
2023-05-01T00:15:03.635Z,73.59
2023-05-01T00:16:12.593Z,73.85
2023-05-01T00:17:14.540Z,73.68
2023-05-01T00:18:16.884Z,74.03
2023-05-01T00:19:19.096Z,73.36
2023-05-01T00:20:20.700Z,75.08
2023-05-01T00:21:22.304Z,74.90
2023-05-01T00:22:23.974Z,74.89
2023-05-01T00:23:25.486Z,74.84
2023-05-01T00:24:27.584Z,75.54
2023-05-01T00:25:29.403Z,76.88
2023-05-01T00:26:32.122Z,77.42
2023-05-01T00:27:33.717Z,78.30
2023-05-01T00:28:35.306Z,78.23
2023-05-01T00:29:36.845Z,79.29
2023-05-01T00:30:38.441Z,79.88
2023-05-01T00:31:42.308Z,79.78
2023-05-01T00:32:43.943Z,79.42
2023-05-01T00:33:45.551Z,79.08
2023-05-01T00:34:48.396Z,78.48
2023-05-01T00:35:51.398Z,78.59
2023-05-01T00:36:52.915Z,77.73
2023-05-01T00:37:54.432Z,77.71
2023-05-01T00:38:56.081Z,77.75
2023-05-01T00:39:58.059Z,77.81
2023-05-01T00:40:59.886Z,77.01
2023-05-01T00:42:02.185Z,77.04
2023-05-01T00:43:03.752Z,77.72
2023-05-01T00:44:05.764Z,77.53
2023-05-01T00:45:08.315Z,76.44
2023-05-01T00:46:11.266Z,76.70
2023-05-01T00:47:13.516Z,76.12
2023-05-01T00:48:15.539Z,75.72
2023-05-01T00:49:17.737Z,76.18
2023-05-01T00:50:19.382Z,76.26
2023-05-01T00:51:22.346Z,75.39
2023-05-01T00:52:24.581Z,76.15
2023-05-01T00:53:28.281Z,76.64
2023-05-01T00:54:30.067Z,77.17
2023-05-01T00:55:33.248Z,76.92
2023-05-01T00:56:34.939Z,77.51
2023-05-01T00:57:37.135Z,77.43
2023-05-01T00:58:39.482Z,76.99
2023-05-01T00:59:41.323Z,76.81
2023-05-01T01:00:43.494Z,77.78
2023-05-01T01:01:45.215Z,77.02
2023-05-01T01:02:46.900Z,76.61
2023-05-01T01:03:48.822Z,76.02
2023-05-01T01:04:50.706Z,75.75
2023-05-01T01:06:00.377Z,75.65
2023-05-01T01:07:15.587Z,75.59
2023-05-01T01:08:40.636Z,75.11
2023-05-01T01:09:52.509Z,74.09
2023-05-01T01:11:12.859Z,73.81
2023-05-01T01:12:26.326Z,74.20
2023-05-01T01:13:32.498Z,73.92
2023-05-01T01:14:38.715Z,73.77
2023-05-01T01:15:48.674Z,73.53
2023-05-01T01:17:04.630Z,73.79
2023-05-01T01:18:19.281Z,73.61
2023-05-01T01:19:44.434Z,73.15
2023-05-01T01:21:16.141Z,73.37
2023-05-01T01:22:23.451Z,73.17
2023-05-01T01:23:30.854Z,73.65
2023-05-01T01:24:59.296Z,74.87
2023-05-01T01:26:13.677Z,75.59
2023-05-01T01:27:18.305Z,76.55
2023-05-01T01:28:57.143Z,77.94
2023-05-01T01:30:32.319Z,78.20
2023-05-01T01:31:56.853Z,78.98
2023-05-01T01:33:41.679Z,79.52
2023-05-01T01:34:58.764Z,79.26
2023-05-01T01:36:07.445Z,79.31
2023-05-01T01:37:17.497Z,79.17
2023-05-01T01:38:28.788Z,80.96
2023-05-01T01:40:05.386Z,83.02
2023-05-01T01:41:19.962Z,82.86
2023-05-01T01:42:35.166Z,83.90
2023-05-01T01:43:42.477Z,84.21
2023-05-01T01:44:51.748Z,84.20
2023-05-01T01:46:00.565Z,83.95
2023-05-01T01:47:06.963Z,83.53
2023-05-01T01:48:16.175Z,84.29
2023-05-01T01:49:23.349Z,83.58
2023-05-01T01:50:27.116Z,81.84
2023-05-01T01:51:29.668Z,82.71
2023-05-01T01:52:33.373Z,82.73
2023-05-01T01:53:37.694Z,82.16
2023-05-01T01:54:43.539Z,82.03
2023-05-01T01:55:48.175Z,82.42
2023-05-01T01:56:51.944Z,82.61
2023-05-01T01:57:53.915Z,82.74
2023-05-01T01:58:56.970Z,81.87
2023-05-01T01:59:58.819Z,82.22
2023-05-01T02:01:01.360Z,82.17
2023-05-01T02:02:05.165Z,82.95
2023-05-01T02:03:09.299Z,83.63
2023-05-01T02:04:12.252Z,83.58
2023-05-01T02:05:16.198Z,83.99
2023-05-01T02:06:17.896Z,85.07
2023-05-01T02:07:20.652Z,84.54
2023-05-01T02:08:24.649Z,85.85
2023-05-01T02:09:28.589Z,85.91
2023-05-01T02:10:30.733Z,86.81
2023-05-01T02:11:34.007Z,87.05
2023-05-01T02:12:36.862Z,86.40
2023-05-01T02:13:40.308Z,86.75
2023-05-01T02:14:42.957Z,86.19
2023-05-01T02:15:45.967Z,85.30
2023-05-01T02:16:50.198Z,84.50
2023-05-01T02:17:52.858Z,84.11
2023-05-01T02:18:56.077Z,83.55
2023-05-01T02:19:58.039Z,82.67
2023-05-01T02:21:00.392Z,82.13
2023-05-01T02:22:05.378Z,81.29
2023-05-01T02:23:07.984Z,81.12
2023-05-01T02:24:11.796Z,80.64
2023-05-01T02:25:15.065Z,80.39
2023-05-01T02:26:18.309Z,80.34
2023-05-01T02:27:40.863Z,79.91
2023-05-01T02:28:42.989Z,80.47
2023-05-01T02:29:44.839Z,80.47
2023-05-01T02:30:47.135Z,81.25
2023-05-01T02:31:48.794Z,82.26
2023-05-01T02:32:50.681Z,82.11
2023-05-01T02:33:52.324Z,82.87
2023-05-01T02:34:54.402Z,83.09
2023-05-01T02:35:55.948Z,82.81
2023-05-01T02:36:57.485Z,83.43
2023-05-01T02:37:59.058Z,83.63
2023-05-01T02:39:01.563Z,83.61
2023-05-01T02:40:04.181Z,84.87
2023-05-01T02:41:07.804Z,84.14
2023-05-01T02:42:10.642Z,84.83
2023-05-01T02:43:15.677Z,83.62
2023-05-01T02:44:19.000Z,83.62
2023-05-01T02:45:23.670Z,84.82
2023-05-01T02:46:27.451Z,84.33
2023-05-01T02:47:32.264Z,85.38
2023-05-01T02:48:35.303Z,84.45
2023-05-01T02:49:38.050Z,84.14
2023-05-01T02:50:43.090Z,84.66
2023-05-01T02:51:46.899Z,84.21
2023-05-01T02:52:48.664Z,84.88
2023-05-01T02:53:50.328Z,85.30
2023-05-01T02:54:51.979Z,85.10
2023-05-01T02:55:53.840Z,84.89
2023-05-01T02:56:55.804Z,85.31
2023-05-01T02:58:00.220Z,85.24
2023-05-01T02:59:02.038Z,84.18
2023-05-01T03:00:04.587Z,84.74
2023-05-01T03:01:06.188Z,84.46
2023-05-01T03:02:07.792Z,85.86
2023-05-01T03:03:09.367Z,85.53
2023-05-01T03:04:10.978Z,85.32
2023-05-01T03:05:12.621Z,84.80
2023-05-01T03:06:14.412Z,85.44
2023-05-01T03:07:16.143Z,84.90
2023-05-01T03:08:17.835Z,84.42
2023-05-01T03:09:19.503Z,84.53
2023-05-01T03:10:21.114Z,84.65
2023-05-01T03:11:24.450Z,84.30
2023-05-01T03:12:26.046Z,83.62
2023-05-01T03:13:27.936Z,83.12
2023-05-01T03:14:29.524Z,83.10
2023-05-01T03:15:31.072Z,82.96
2023-05-01T03:16:32.663Z,83.58
2023-05-01T03:17:34.428Z,83.08
2023-05-01T03:18:36.104Z,83.06
2023-05-01T03:19:37.654Z,82.94
2023-05-01T03:20:39.364Z,83.14
2023-05-01T03:21:40.970Z,82.00
2023-05-01T03:22:42.531Z,82.44
2023-05-01T03:23:44.143Z,82.43
2023-05-01T03:24:47.580Z,81.50
2023-05-01T03:25:49.787Z,81.43
2023-05-01T03:26:51.307Z,81.53
2023-05-01T03:27:54.918Z,81.28
2023-05-01T03:28:56.877Z,81.16
2023-05-01T03:29:58.509Z,81.08
2023-05-01T03:31:00.472Z,81.36
2023-05-01T03:32:02.170Z,80.45
2023-05-01T03:33:03.919Z,80.16
2023-05-01T03:34:05.482Z,80.42
2023-05-01T03:35:07.873Z,79.74
2023-05-01T03:36:12.503Z,80.31
2023-05-01T03:37:14.749Z,80.32
2023-05-01T03:38:16.430Z,79.70
2023-05-01T03:39:17.998Z,79.08
2023-05-01T03:40:19.781Z,79.22
2023-05-01T03:41:21.518Z,79.21
2023-05-01T03:42:23.334Z,78.96
2023-05-01T03:43:25.874Z,78.78
2023-05-01T03:44:27.538Z,78.10
2023-05-01T03:45:29.222Z,77.58
2023-05-01T03:46:30.845Z,77.49
2023-05-01T03:47:32.436Z,77.70
2023-05-01T03:48:33.974Z,77.28
2023-05-01T03:49:35.554Z,77.33
2023-05-01T03:50:37.406Z,77.21
2023-05-01T03:51:38.991Z,76.93
2023-05-01T03:52:40.507Z,76.74
2023-05-01T03:53:42.111Z,77.28
2023-05-01T03:54:44.309Z,76.97
2023-05-01T03:55:45.847Z,76.64
2023-05-01T03:56:47.832Z,76.21
2023-05-01T03:57:49.448Z,76.82
2023-05-01T03:58:51.281Z,77.10
2023-05-01T03:59:53.326Z,77.69
2023-05-01T04:00:56.994Z,79.54
2023-05-01T04:01:58.689Z,79.87
2023-05-01T04:03:00.394Z,80.01
2023-05-01T04:04:02.438Z,80.01
2023-05-01T04:05:04.312Z,80.03
2023-05-01T04:06:06.424Z,79.70
2023-05-01T04:07:08.052Z,79.35
2023-05-01T04:08:09.599Z,79.11
2023-05-01T04:09:11.153Z,78.34
2023-05-01T04:10:12.864Z,78.25
2023-05-01T04:11:14.406Z,77.96
2023-05-01T04:12:15.950Z,79.04
2023-05-01T04:13:17.594Z,78.66
2023-05-01T04:14:19.154Z,78.73
2023-05-01T04:15:22.753Z,79.29
2023-05-01T04:16:25.049Z,79.00
2023-05-01T04:17:27.535Z,79.46
2023-05-01T04:18:29.097Z,78.76
2023-05-01T04:19:30.646Z,78.11
2023-05-01T04:20:33.089Z,78.31
2023-05-01T04:21:35.160Z,78.15
2023-05-01T04:22:37.314Z,77.71
2023-05-01T04:23:38.884Z,77.33
2023-05-01T04:24:40.582Z,78.08
2023-05-01T04:25:42.197Z,78.86
2023-05-01T04:26:43.824Z,79.16
2023-05-01T04:27:45.402Z,79.25
2023-05-01T04:28:46.918Z,79.11
2023-05-01T04:29:48.553Z,79.18
2023-05-01T04:30:50.294Z,78.71
2023-05-01T04:31:51.910Z,78.45
2023-05-01T04:32:54.200Z,78.12
2023-05-01T04:33:56.062Z,77.42
2023-05-01T04:34:57.956Z,77.15
2023-05-01T04:35:59.764Z,76.04
2023-05-01T04:37:03.028Z,75.80
2023-05-01T04:38:05.889Z,74.37
2023-05-01T04:39:08.355Z,73.75
2023-05-01T04:40:11.814Z,72.30
2023-05-01T04:41:13.499Z,72.55
2023-05-01T04:42:15.119Z,72.68
2023-05-01T04:43:16.688Z,72.72
2023-05-01T04:44:18.288Z,72.52
2023-05-01T04:45:19.844Z,73.10
2023-05-01T04:46:21.461Z,72.66
2023-05-01T04:47:23.078Z,72.95
2023-05-01T04:48:24.675Z,72.89
2023-05-01T04:49:26.241Z,72.82
2023-05-01T04:50:27.846Z,73.09
2023-05-01T04:51:29.670Z,73.02
2023-05-01T04:52:31.245Z,73.46
2023-05-01T04:53:32.787Z,72.52
2023-05-01T04:54:34.398Z,72.45
2023-05-01T04:55:36.027Z,72.82
2023-05-01T04:56:37.548Z,72.44
2023-05-01T04:57:39.150Z,72.47
2023-05-01T04:58:40.738Z,72.77
2023-05-01T04:59:43.256Z,72.39
2023-05-01T05:00:44.822Z,71.70
2023-05-01T05:01:46.541Z,71.89
2023-05-01T05:02:48.242Z,71.67
2023-05-01T05:03:50.367Z,71.72
2023-05-01T05:04:53.911Z,71.67
2023-05-01T05:05:55.915Z,71.92
2023-05-01T05:06:57.775Z,72.39
2023-05-01T05:07:59.778Z,72.12
2023-05-01T05:09:01.448Z,71.92
2023-05-01T05:10:03.090Z,72.30
2023-05-01T05:11:04.641Z,72.30
2023-05-01T05:12:06.217Z,71.39
2023-05-01T05:13:07.752Z,71.03
2023-05-01T05:14:10.398Z,70.42
2023-05-01T05:15:12.185Z,70.55
2023-05-01T05:16:14.088Z,70.80
2023-05-01T05:17:15.669Z,70.32
2023-05-01T05:18:17.295Z,70.34
2023-05-01T05:19:18.886Z,70.57
2023-05-01T05:20:20.547Z,71.47
2023-05-01T05:21:22.066Z,71.59
2023-05-01T05:22:24.223Z,71.57
2023-05-01T05:23:25.852Z,71.59
2023-05-01T05:24:27.372Z,71.45
2023-05-01T05:25:28.960Z,71.90
2023-05-01T05:26:30.578Z,72.43
2023-05-01T05:27:36.483Z,73.11
2023-05-01T05:28:37.973Z,74.59
2023-05-01T05:29:40.038Z,74.15
2023-05-01T05:30:41.617Z,74.97
2023-05-01T05:31:43.607Z,75.35
2023-05-01T05:32:47.326Z,73.23
2023-05-01T05:33:49.054Z,73.96
2023-05-01T05:34:50.603Z,75.33
2023-05-01T05:35:52.472Z,74.68
2023-05-01T05:36:54.044Z,73.31
2023-05-01T05:37:55.649Z,73.60
2023-05-01T05:38:57.174Z,73.10
2023-05-01T05:39:58.943Z,72.78
2023-05-01T05:41:01.819Z,72.23
2023-05-01T05:42:03.788Z,72.29
2023-05-01T05:43:05.452Z,70.77
2023-05-01T05:44:07.057Z,69.92
2023-05-01T05:45:09.616Z,69.62
2023-05-01T05:46:11.675Z,68.97
2023-05-01T05:47:13.222Z,67.80
2023-05-01T05:48:15.054Z,68.25
2023-05-01T05:49:16.682Z,67.68
2023-05-01T05:50:18.312Z,66.88
2023-05-01T05:51:19.911Z,65.67
2023-05-01T05:52:21.766Z,65.25
2023-05-01T05:53:25.778Z,64.44
2023-05-01T05:54:27.893Z,63.79
2023-05-01T05:55:29.443Z,63.63
2023-05-01T05:56:31.063Z,63.06
2023-05-01T05:57:32.592Z,63.94
2023-05-01T05:58:34.161Z,64.31
2023-05-01T05:59:36.464Z,63.03
2023-05-01T06:00:38.214Z,62.45
2023-05-01T06:01:40.350Z,61.62
2023-05-01T06:02:42.002Z,62.28
2023-05-01T06:03:43.680Z,62.86
2023-05-01T06:04:45.575Z,63.88
2023-05-01T06:05:47.519Z,63.45
2023-05-01T06:06:49.176Z,63.11
2023-05-01T06:07:51.248Z,63.32
2023-05-01T06:08:52.862Z,61.65
2023-05-01T06:09:55.392Z,62.20
2023-05-01T06:10:58.960Z,63.48
2023-05-01T06:12:00.503Z,64.18
2023-05-01T06:13:13.231Z,63.66
2023-05-01T06:14:16.978Z,65.32
2023-05-01T06:15:18.522Z,63.49
2023-05-01T06:16:20.139Z,62.66
2023-05-01T06:17:22.227Z,61.76
2023-05-01T06:18:23.791Z,65.89
2023-05-01T06:19:25.750Z,61.14
2023-05-01T06:20:27.406Z,59.66
2023-05-01T06:21:29.252Z,60.19
2023-05-01T06:22:30.818Z,58.46
2023-05-01T06:23:33.972Z,59.72
2023-05-01T06:24:36.852Z,57.66
2023-05-01T06:25:38.446Z,57.83
2023-05-01T06:26:39.995Z,57.88
2023-05-01T06:27:42.097Z,55.86
2023-05-01T06:28:43.595Z,55.55
2023-05-01T06:29:45.163Z,55.23
2023-05-01T06:30:46.699Z,54.23
2023-05-01T06:31:48.305Z,55.56
2023-05-01T06:32:50.299Z,54.50
2023-05-01T06:33:51.984Z,54.74
2023-05-01T06:34:53.532Z,53.87
2023-05-01T06:35:55.895Z,53.55
2023-05-01T06:36:57.482Z,53.95
2023-05-01T06:38:00.300Z,54.19
2023-05-01T06:39:01.955Z,52.75
2023-05-01T06:40:04.737Z,53.29
2023-05-01T06:41:07.221Z,52.47
2023-05-01T06:42:11.498Z,50.69
2023-05-01T06:43:13.163Z,51.61
2023-05-01T06:44:15.602Z,50.89
2023-05-01T06:45:17.386Z,50.22
2023-05-01T06:46:18.984Z,50.19
2023-05-01T06:47:21.484Z,50.40
2023-05-01T06:48:23.498Z,51.25
2023-05-01T06:49:25.074Z,52.56
2023-05-01T06:50:26.666Z,52.85
2023-05-01T06:51:28.220Z,53.21
2023-05-01T06:52:29.757Z,51.34
2023-05-01T06:53:31.448Z,52.95
2023-05-01T06:54:33.038Z,53.07
2023-05-01T06:55:35.863Z,52.49
2023-05-01T06:56:37.651Z,52.42
2023-05-01T06:57:40.127Z,52.07
2023-05-01T06:58:41.658Z,52.22
2023-05-01T06:59:43.166Z,52.02
2023-05-01T07:00:44.760Z,51.46
2023-05-01T07:01:46.514Z,50.75
2023-05-01T07:02:48.216Z,51.40
2023-05-01T07:03:49.848Z,52.55
2023-05-01T07:04:51.416Z,53.42
2023-05-01T07:05:53.570Z,52.87
2023-05-01T07:06:55.119Z,52.31
2023-05-01T07:08:01.125Z,56.11
2023-05-01T07:09:05.172Z,54.82
2023-05-01T07:10:07.173Z,55.19
2023-05-01T07:11:08.855Z,57.18
2023-05-01T07:12:10.481Z,56.18
2023-05-01T07:13:12.107Z,55.54
2023-05-01T07:14:13.784Z,56.11
2023-05-01T07:15:16.438Z,53.43
2023-05-01T07:16:18.209Z,53.56
2023-05-01T07:17:19.841Z,53.35
2023-05-01T07:18:21.527Z,54.51
2023-05-01T07:19:23.026Z,53.56
2023-05-01T07:20:24.764Z,52.96
2023-05-01T07:21:26.475Z,53.91
2023-05-01T07:22:29.269Z,53.33
2023-05-01T07:23:31.221Z,54.29
2023-05-01T07:24:32.930Z,56.43
2023-05-01T07:25:34.490Z,53.47
2023-05-01T07:26:36.282Z,53.71
2023-05-01T07:27:37.864Z,55.96
2023-05-01T07:28:39.482Z,54.48
2023-05-01T07:29:41.057Z,52.94
2023-05-01T07:30:42.584Z,51.50
2023-05-01T07:31:46.222Z,51.28
2023-05-01T07:32:48.223Z,53.12
2023-05-01T07:33:51.018Z,52.10
2023-05-01T07:34:52.962Z,53.24
2023-05-01T07:35:54.503Z,54.57
2023-05-01T07:36:57.106Z,55.15
2023-05-01T07:37:58.712Z,53.01
2023-05-01T07:39:01.078Z,54.00
2023-05-01T07:40:02.829Z,53.81
2023-05-01T07:41:04.385Z,55.31
2023-05-01T07:42:05.934Z,55.42
2023-05-01T07:43:11.278Z,54.74
2023-05-01T07:44:13.858Z,56.75
2023-05-01T07:45:15.481Z,55.32
2023-05-01T07:46:17.175Z,56.81
2023-05-01T07:47:19.479Z,55.29
2023-05-01T07:48:20.971Z,56.55
2023-05-01T07:49:22.580Z,57.46
2023-05-01T07:50:25.917Z,56.05
2023-05-01T07:51:27.617Z,55.74
2023-05-01T07:52:29.252Z,56.10
2023-05-01T07:53:30.802Z,53.94
2023-05-01T07:54:33.791Z,53.36
2023-05-01T07:55:36.123Z,51.76
2023-05-01T07:56:38.490Z,50.50
2023-05-01T07:57:40.105Z,51.79
2023-05-01T07:58:42.642Z,50.45
2023-05-01T07:59:44.469Z,51.50
2023-05-01T08:00:46.274Z,51.48
2023-05-01T08:01:47.922Z,52.33
2023-05-01T08:02:51.415Z,51.23
2023-05-01T08:03:53.221Z,49.15
2023-05-01T08:04:54.943Z,49.98
2023-05-01T08:05:57.575Z,49.58
2023-05-01T08:06:59.221Z,49.35
2023-05-01T08:08:01.369Z,47.74
2023-05-01T08:09:03.015Z,47.39
2023-05-01T08:10:05.206Z,46.21
2023-05-01T08:11:07.117Z,46.60
2023-05-01T08:12:08.696Z,46.70
2023-05-01T08:13:10.239Z,45.32
2023-05-01T08:14:11.836Z,45.60
2023-05-01T08:15:13.406Z,44.69
2023-05-01T08:16:14.998Z,45.28
2023-05-01T08:17:16.992Z,46.63
2023-05-01T08:18:21.377Z,45.31
2023-05-01T08:19:23.743Z,45.54
2023-05-01T08:20:25.321Z,46.30
2023-05-01T08:21:27.025Z,45.66
2023-05-01T08:22:28.747Z,45.39
2023-05-01T08:23:30.693Z,44.70
2023-05-01T08:24:32.476Z,45.63
2023-05-01T08:25:34.078Z,45.37
2023-05-01T08:26:35.678Z,45.54
2023-05-01T08:27:37.396Z,45.52
2023-05-01T08:28:38.958Z,45.97
2023-05-01T08:29:40.661Z,46.81
2023-05-01T08:30:42.273Z,47.26
2023-05-01T08:31:44.009Z,47.94
2023-05-01T08:32:45.763Z,48.53
2023-05-01T08:33:47.356Z,48.17
2023-05-01T08:34:48.918Z,48.53
2023-05-01T08:35:51.284Z,46.40
2023-05-01T08:36:52.878Z,46.65
2023-05-01T08:37:54.495Z,45.79
2023-05-01T08:38:56.060Z,47.29
2023-05-01T08:39:57.879Z,46.87
2023-05-01T08:41:01.709Z,47.18
2023-05-01T08:42:03.571Z,48.17
2023-05-01T08:43:05.265Z,47.42
2023-05-01T08:44:09.258Z,49.35
2023-05-01T08:45:11.909Z,46.26
2023-05-01T08:46:18.973Z,46.31
2023-05-01T08:47:21.177Z,44.32
2023-05-01T08:48:25.445Z,42.75
2023-05-01T08:49:27.758Z,42.51
2023-05-01T08:50:29.752Z,40.56
2023-05-01T08:51:33.429Z,41.55
2023-05-01T08:52:36.510Z,42.03
2023-05-01T08:53:38.833Z,42.54
2023-05-01T08:54:43.782Z,41.42
2023-05-01T08:55:48.604Z,41.36
2023-05-01T08:56:52.772Z,43.75
2023-05-01T08:57:55.641Z,41.86
2023-05-01T08:58:58.652Z,41.55
2023-05-01T09:00:01.044Z,41.08
2023-05-01T09:01:03.229Z,41.50
2023-05-01T09:02:06.413Z,41.54
2023-05-01T09:03:11.482Z,41.20
2023-05-01T09:04:14.746Z,40.28
2023-05-01T09:05:18.194Z,40.53
2023-05-01T09:06:20.493Z,40.80
2023-05-01T09:07:22.507Z,42.28
2023-05-01T09:08:24.161Z,39.78
2023-05-01T09:09:25.744Z,40.74
2023-05-01T09:10:27.515Z,40.88
2023-05-01T09:11:30.173Z,40.67
2023-05-01T09:12:35.487Z,39.76
2023-05-01T09:13:37.087Z,39.75
2023-05-01T09:14:39.016Z,40.03
2023-05-01T09:15:41.078Z,39.91
2023-05-01T09:16:42.689Z,39.38
2023-05-01T09:17:44.981Z,39.08
2023-05-01T09:18:47.141Z,39.53
2023-05-01T09:19:52.848Z,40.29
2023-05-01T09:20:55.244Z,39.13
2023-05-01T09:21:56.909Z,39.90
2023-05-01T09:22:59.534Z,39.13
2023-05-01T09:24:02.715Z,39.28
2023-05-01T09:25:04.572Z,39.34
2023-05-01T09:26:07.207Z,39.53
2023-05-01T09:27:09.341Z,38.77
2023-05-01T09:28:10.931Z,38.96
2023-05-01T09:29:12.516Z,40.47
2023-05-01T09:30:38.411Z,39.93
2023-05-01T09:31:40.600Z,39.98
2023-05-01T09:32:42.800Z,39.12
2023-05-01T09:34:01.470Z,39.20
2023-05-01T09:35:10.107Z,38.58
2023-05-01T09:36:17.435Z,37.94
2023-05-01T09:37:29.715Z,37.79
2023-05-01T09:38:31.841Z,38.70
2023-05-01T09:39:33.463Z,37.45
2023-05-01T09:40:35.054Z,38.75
2023-05-01T09:41:51.362Z,38.75
2023-05-01T09:42:56.200Z,40.50
2023-05-01T09:43:58.142Z,42.27
2023-05-01T09:45:05.168Z,42.11
2023-05-01T09:46:11.951Z,40.78
2023-05-01T09:47:13.960Z,41.25
2023-05-01T09:48:16.978Z,40.29
2023-05-01T09:49:18.531Z,39.05
2023-05-01T09:50:31.779Z,39.84
2023-05-01T09:51:34.875Z,39.44
2023-05-01T09:52:36.453Z,38.09
2023-05-01T09:53:39.635Z,38.06
2023-05-01T09:54:41.782Z,38.79
2023-05-01T09:55:52.414Z,38.84
2023-05-01T09:56:53.942Z,37.06
2023-05-01T09:57:55.491Z,37.52
2023-05-01T09:58:59.019Z,37.79
2023-05-01T10:00:10.307Z,38.99
2023-05-01T10:01:12.192Z,37.72
2023-05-01T10:02:30.686Z,39.64
2023-05-01T10:03:35.004Z,38.45
2023-05-01T10:04:36.794Z,37.48
2023-05-01T10:05:44.764Z,36.79
2023-05-01T10:06:46.506Z,36.96
2023-05-01T10:08:02.255Z,36.73
2023-05-01T10:09:07.077Z,35.96
2023-05-01T10:10:22.294Z,34.80
2023-05-01T10:11:24.188Z,36.35
2023-05-01T10:12:28.137Z,36.35
2023-05-01T10:13:30.857Z,36.20
2023-05-01T10:14:38.536Z,36.53
2023-05-01T10:15:40.130Z,38.22
2023-05-01T10:16:41.752Z,38.73
2023-05-01T10:17:44.796Z,37.65
2023-05-01T10:18:46.623Z,38.76
2023-05-01T10:19:49.089Z,37.86
2023-05-01T10:20:51.696Z,36.65
2023-05-01T10:21:53.571Z,36.35
2023-05-01T10:22:55.678Z,37.07
2023-05-01T10:23:57.616Z,37.15
2023-05-01T10:25:00.384Z,37.02
2023-05-01T10:26:05.266Z,36.90
2023-05-01T10:27:08.060Z,36.75
2023-05-01T10:28:10.133Z,37.44
2023-05-01T10:29:12.679Z,36.28
2023-05-01T10:30:17.269Z,36.88
2023-05-01T10:31:18.913Z,36.30
2023-05-01T10:32:21.686Z,35.76
2023-05-01T10:33:23.726Z,35.36
2023-05-01T10:34:28.408Z,35.76
2023-05-01T10:35:34.631Z,36.38
2023-05-01T10:36:47.630Z,36.75
2023-05-01T10:37:58.594Z,37.82
2023-05-01T10:39:01.275Z,38.06
2023-05-01T10:40:41.250Z,36.84
2023-05-01T10:41:58.202Z,35.37
2023-05-01T10:43:31.168Z,35.74
2023-05-01T10:44:34.924Z,35.12
2023-05-01T10:45:36.832Z,35.18
2023-05-01T10:46:38.457Z,35.14
2023-05-01T10:47:43.228Z,35.96
2023-05-01T10:48:47.587Z,35.34
2023-05-01T10:50:12.034Z,35.32
2023-05-01T10:51:14.429Z,35.26
2023-05-01T10:52:16.006Z,36.71
2023-05-01T10:53:18.238Z,35.39
2023-05-01T10:54:20.459Z,35.91
2023-05-01T10:55:35.253Z,36.05
2023-05-01T10:56:36.787Z,37.72
2023-05-01T10:57:43.720Z,39.35
2023-05-01T10:58:51.470Z,40.16
2023-05-01T10:59:59.167Z,38.19
2023-05-01T11:01:30.252Z,37.27
2023-05-01T11:02:32.002Z,36.30
2023-05-01T11:03:33.514Z,35.64
2023-05-01T11:04:44.129Z,37.80
2023-05-01T11:06:01.056Z,36.42
2023-05-01T11:07:05.817Z,37.07
2023-05-01T11:08:34.998Z,40.08
2023-05-01T11:09:39.672Z,39.43
2023-05-01T11:10:41.500Z,40.18
2023-05-01T11:11:43.310Z,39.63
2023-05-01T11:12:51.757Z,40.94
2023-05-01T11:14:03.225Z,40.26
2023-05-01T11:15:08.871Z,39.85
2023-05-01T11:16:46.098Z,38.96
2023-05-01T11:17:49.846Z,38.67
2023-05-01T11:18:51.476Z,38.46
2023-05-01T11:19:53.029Z,39.66
2023-05-01T11:20:54.633Z,39.71
2023-05-01T11:21:57.336Z,39.13
2023-05-01T11:22:59.376Z,38.42
2023-05-01T11:24:01.714Z,38.75
2023-05-01T11:25:04.622Z,38.18
2023-05-01T11:26:06.373Z,39.29
2023-05-01T11:27:08.932Z,38.16
2023-05-01T11:28:11.637Z,38.87
2023-05-01T11:29:13.197Z,36.32
2023-05-01T11:30:14.904Z,37.61
2023-05-01T11:31:18.986Z,38.55
2023-05-01T11:32:25.360Z,38.43
2023-05-01T11:33:27.550Z,38.69
2023-05-01T11:34:36.878Z,38.59
2023-05-01T11:35:39.030Z,37.47
2023-05-01T11:36:51.670Z,36.26
2023-05-01T11:37:56.023Z,36.28
2023-05-01T11:39:01.970Z,37.65
2023-05-01T11:40:04.669Z,37.48
2023-05-01T11:41:06.372Z,38.02
2023-05-01T11:42:09.646Z,38.24
2023-05-01T11:43:12.682Z,36.52
2023-05-01T11:44:18.488Z,36.59
2023-05-01T11:45:20.641Z,36.21
2023-05-01T11:46:33.090Z,36.95
2023-05-01T11:47:34.864Z,37.59
2023-05-01T11:48:36.521Z,37.20
2023-05-01T11:49:38.989Z,35.83
2023-05-01T11:50:40.824Z,35.44
2023-05-01T11:51:42.423Z,34.42
2023-05-01T11:52:49.429Z,35.13
2023-05-01T11:54:04.491Z,35.63
2023-05-01T11:55:07.171Z,34.73
2023-05-01T11:56:26.581Z,35.24
2023-05-01T11:57:28.901Z,35.66
2023-05-01T11:58:33.008Z,35.90
2023-05-01T11:59:34.769Z,36.69
2023-05-01T12:00:41.860Z,36.76
2023-05-01T12:01:45.548Z,37.21
2023-05-01T12:03:08.832Z,38.74
2023-05-01T12:04:14.867Z,39.87
2023-05-01T12:05:17.366Z,40.76
2023-05-01T12:06:18.948Z,41.23
2023-05-01T12:07:24.010Z,41.78
2023-05-01T12:08:25.890Z,42.78
2023-05-01T12:09:28.232Z,43.36
2023-05-01T12:10:30.588Z,43.36
2023-05-01T12:11:32.216Z,43.32
2023-05-01T12:12:34.075Z,44.23
2023-05-01T12:13:35.982Z,44.35
2023-05-01T12:14:37.717Z,45.04
2023-05-01T12:15:45.092Z,45.90
2023-05-01T12:16:47.442Z,46.79
2023-05-01T12:17:50.272Z,47.61
2023-05-01T12:18:52.716Z,48.31
2023-05-01T12:19:54.333Z,49.65
2023-05-01T12:20:56.187Z,50.38
2023-05-01T12:22:09.473Z,51.03
2023-05-01T12:23:12.678Z,50.89
2023-05-01T12:24:16.484Z,51.43
2023-05-01T12:25:19.466Z,49.70
2023-05-01T12:26:25.801Z,50.33
2023-05-01T12:27:27.340Z,51.22
2023-05-01T12:28:29.209Z,50.64
2023-05-01T12:29:41.474Z,51.23
2023-05-01T12:30:44.938Z,51.97
2023-05-01T12:31:49.902Z,52.81
2023-05-01T12:32:52.258Z,53.79
2023-05-01T12:34:01.728Z,55.53
2023-05-01T12:35:15.522Z,56.75
2023-05-01T12:36:17.991Z,58.78
2023-05-01T12:37:19.588Z,59.49
2023-05-01T12:38:22.424Z,60.09
2023-05-01T12:39:24.318Z,61.69
2023-05-01T12:40:27.053Z,62.97
2023-05-01T12:41:45.943Z,63.43
2023-05-01T12:42:55.899Z,65.13
2023-05-01T12:43:57.950Z,66.83
2023-05-01T12:45:01.645Z,68.05
2023-05-01T12:46:04.708Z,68.62
2023-05-01T12:47:08.248Z,68.58
2023-05-01T12:48:16.170Z,69.49
2023-05-01T12:49:18.772Z,69.69
2023-05-01T12:50:21.082Z,69.92
2023-05-01T12:51:22.912Z,69.81
2023-05-01T12:52:27.773Z,69.31
2023-05-01T12:53:29.767Z,69.58
2023-05-01T12:54:33.381Z,69.98
2023-05-01T12:55:43.647Z,68.98
2023-05-01T12:56:46.294Z,67.46
2023-05-01T12:57:52.819Z,67.50
2023-05-01T12:58:55.336Z,67.07
2023-05-01T13:00:02.071Z,66.43
2023-05-01T13:01:04.024Z,65.96
2023-05-01T13:02:13.391Z,64.83
2023-05-01T13:03:18.918Z,63.67
2023-05-01T13:04:21.924Z,63.19
2023-05-01T13:05:23.528Z,63.26
2023-05-01T13:06:35.300Z,62.19
2023-05-01T13:07:38.378Z,63.34
2023-05-01T13:08:40.413Z,62.22
2023-05-01T13:09:56.592Z,62.17
2023-05-01T13:11:09.080Z,62.11
2023-05-01T13:12:12.044Z,62.50
2023-05-01T13:13:13.765Z,62.73
2023-05-01T13:14:15.462Z,61.42
2023-05-01T13:15:21.619Z,61.89
2023-05-01T13:16:24.755Z,61.84
2023-05-01T13:17:28.042Z,62.39
2023-05-01T13:18:30.934Z,61.51
2023-05-01T13:19:33.038Z,61.48
2023-05-01T13:20:36.355Z,61.32
2023-05-01T13:21:48.166Z,61.57
2023-05-01T13:22:49.744Z,61.48
2023-05-01T13:23:56.278Z,62.05
2023-05-01T13:24:58.116Z,61.32
2023-05-01T13:25:59.770Z,61.40
2023-05-01T13:27:04.258Z,60.62
2023-05-01T13:28:07.027Z,60.73
2023-05-01T13:29:15.348Z,59.09
2023-05-01T13:30:21.865Z,58.98
2023-05-01T13:31:23.491Z,59.36
2023-05-01T13:32:26.073Z,59.48
2023-05-01T13:33:31.465Z,58.86
2023-05-01T13:34:34.248Z,59.94
2023-05-01T13:35:36.295Z,58.18
2023-05-01T13:36:40.217Z,56.57
2023-05-01T13:37:41.963Z,55.43
2023-05-01T13:38:50.980Z,53.55
2023-05-01T13:39:58.160Z,54.01
2023-05-01T13:40:59.891Z,53.76
2023-05-01T13:42:03.868Z,54.04
2023-05-01T13:43:05.390Z,53.62